Time;durP1;ratioP1;P1;durP2;ratioP2;P2;SDS_P1;SDS_P2;PMS_P1;PMS_P2;Temp;Humidity;BMP_temperature;BMP_pressure;BME280_temperature;BME280_humidity;BME280_pressure;Samples;Min_cycle;Max_cycle;Signal;HPM_P1;HPM_P2
2022/03/21 00:00:33;;;;;;;27.08;14.73;;;8.80;99.90;;;;;;5026877;28;20022;-59
2022/03/21 00:02:59;;;;;;;30.50;14.18;;;8.80;99.90;;;;;;5025438;28;20104;-55
2022/03/21 00:05:25;;;;;;;28.38;14.70;;;8.80;99.90;;;;;;5026470;28;20144;-59
2022/03/21 00:07:51;;;;;;;30.00;13.95;;;8.70;99.90;;;;;;5028747;28;20044;-60
2022/03/21 00:10:17;;;;;;;30.88;14.52;;;8.70;99.90;;;;;;5028801;28;20474;-58
2022/03/21 00:12:42;;;;;;;25.13;13.70;;;8.60;99.90;;;;;;5023835;28;20025;-58
2022/03/21 00:15:11;;;;;;;26.90;13.43;;;8.60;99.90;;;;;;5027899;28;20514;-59
2022/03/21 00:17:40;;;;;;;26.65;14.10;;;8.60;99.90;;;;;;5029593;28;20029;-58
2022/03/21 00:20:10;;;;;;;31.27;13.98;;;8.60;99.90;;;;;;5028191;28;20079;-57
2022/03/21 00:22:37;;;;;;;24.88;13.32;;;8.60;99.90;;;;;;5024354;28;20025;-55
2022/03/21 00:25:05;;;;;;;20.83;12.52;;;8.70;99.90;;;;;;5028348;28;20483;-59
2022/03/21 00:27:31;;;;;;;31.02;12.52;;;8.70;99.90;;;;;;5009794;28;20068;-59
2022/03/21 00:29:57;;;;;;;32.35;13.68;;;8.70;99.90;;;;;;5035736;28;20060;-57
2022/03/21 00:32:23;;;;;;;24.50;13.30;;;8.70;99.90;;;;;;5028412;28;20061;-59
2022/03/21 00:34:48;;;;;;;26.30;13.52;;;8.80;99.90;;;;;;5032779;28;20025;-60
2022/03/21 00:37:14;;;;;;;26.63;13.10;;;8.90;99.90;;;;;;5021091;28;20037;-56
2022/03/21 00:39:40;;;;;;;26.75;14.82;;;8.90;99.90;;;;;;5033586;28;20030;-59
2022/03/21 00:42:05;;;;;;;31.33;14.65;;;9.00;99.90;;;;;;5028867;28;20402;-58
2022/03/21 00:44:31;;;;;;;26.48;14.63;;;9.00;99.90;;;;;;5028487;28;20102;-60
2022/03/21 00:46:56;;;;;;;27.95;14.18;;;9.00;99.90;;;;;;5028878;28;20037;-59
2022/03/21 00:49:22;;;;;;;23.52;14.23;;;9.00;99.90;;;;;;5028561;28;20025;-59
2022/03/21 00:51:47;;;;;;;27.05;14.13;;;9.00;99.90;;;;;;5025346;28;20026;-60
2022/03/21 00:54:13;;;;;;;21.83;14.38;;;8.90;99.90;;;;;;5026140;28;20034;-59
2022/03/21 00:56:38;;;;;;;27.10;14.68;;;8.90;99.90;;;;;;5025594;28;20380;-60
2022/03/21 00:59:05;;;;;;;31.23;15.63;;;9.00;99.90;;;;;;5031221;28;20033;-58
2022/03/21 01:01:30;;;;;;;30.38;15.60;;;8.90;99.90;;;;;;5032928;28;20057;-60
2022/03/21 01:03:56;;;;;;;29.27;14.77;;;8.90;99.90;;;;;;5031246;28;20653;-58
2022/03/21 01:06:22;;;;;;;30.90;15.68;;;8.80;99.90;;;;;;5032895;28;20033;-57
2022/03/21 01:08:48;;;;;;;26.10;15.25;;;8.80;99.90;;;;;;5030084;28;20434;-58
2022/03/21 01:11:14;;;;;;;30.23;16.42;;;8.70;99.90;;;;;;5019137;28;20013;-58
2022/03/21 01:13:42;;;;;;;24.05;13.77;;;8.60;99.90;;;;;;5025610;28;20022;-60
2022/03/21 01:16:08;;;;;;;32.15;13.90;;;8.50;99.90;;;;;;5031081;28;20026;-60
2022/03/21 01:18:34;;;;;;;27.45;14.75;;;8.60;99.90;;;;;;5031116;28;20048;-61
2022/03/21 01:20:59;;;;;;;26.50;13.93;;;8.50;99.90;;;;;;5032546;28;20033;-59
2022/03/21 01:23:25;;;;;;;29.50;14.43;;;8.50;99.90;;;;;;5023866;28;20029;-61
2022/03/21 01:25:50;;;;;;;29.75;14.60;;;8.50;99.90;;;;;;5032067;28;20132;-59
2022/03/21 01:28:16;;;;;;;32.17;15.05;;;8.50;99.90;;;;;;5012739;28;20072;-56
2022/03/21 01:30:41;;;;;;;28.80;13.93;;;8.50;99.90;;;;;;5029229;28;20080;-59
2022/03/21 01:33:10;;;;;;;33.22;13.77;;;8.50;99.90;;;;;;5032680;28;20447;-58
2022/03/21 01:35:35;;;;;;;22.15;14.52;;;8.50;99.90;;;;;;5032212;28;20036;-58
2022/03/21 01:38:01;;;;;;;22.60;14.45;;;8.50;99.90;;;;;;5029941;28;20037;-58
2022/03/21 01:40:27;;;;;;;24.40;13.30;;;8.60;99.90;;;;;;5029389;28;20029;-58
2022/03/21 01:42:52;;;;;;;34.47;16.00;;;8.60;99.90;;;;;;5032085;28;20037;-59
2022/03/21 01:45:19;;;;;;;27.17;13.35;;;8.50;99.90;;;;;;5032214;28;20116;-58
2022/03/21 01:47:46;;;;;;;26.85;13.90;;;8.50;99.90;;;;;;5032096;28;20474;-55
2022/03/21 01:50:13;;;;;;;26.75;14.25;;;8.50;99.90;;;;;;5032331;28;20018;-59
2022/03/21 01:52:41;;;;;;;27.92;14.30;;;8.50;99.90;;;;;;5013540;28;20025;-59
2022/03/21 01:57:52;;;;;;;25.20;14.32;;;8.40;99.90;;;;;;5029520;28;20041;-59
2022/03/21 02:00:18;;;;;;;26.88;14.60;;;8.30;99.90;;;;;;5032056;28;20025;-58
2022/03/21 02:02:44;;;;;;;25.58;14.25;;;8.30;99.90;;;;;;5029953;28;20036;-58
2022/03/21 02:05:10;;;;;;;29.58;14.48;;;8.30;99.90;;;;;;5031237;28;20129;-58
2022/03/21 02:07:36;;;;;;;32.50;13.40;;;8.30;99.90;;;;;;5031390;28;20045;-60
2022/03/21 02:10:04;;;;;;;32.85;15.18;;;8.20;99.90;;;;;;5032270;28;20506;-58
2022/03/21 02:12:30;;;;;;;27.02;15.02;;;8.20;99.90;;;;;;5031875;28;20021;-57
2022/03/21 02:14:56;;;;;;;21.95;12.52;;;8.10;99.90;;;;;;5019746;28;20030;-58
2022/03/21 02:17:24;;;;;;;23.38;13.55;;;8.20;99.90;;;;;;5029400;28;20033;-59
2022/03/21 02:19:50;;;;;;;26.70;14.80;;;8.20;99.90;;;;;;5012485;28;20059;-58
2022/03/21 02:22:28;;;;;;;23.98;14.40;;;8.10;99.90;;;;;;5023478;28;20538;-60
2022/03/21 02:25:13;;;;;;;29.42;14.05;;;8.10;99.90;;;;;;5022913;28;20014;-59
2022/03/21 02:27:40;;;;;;;27.40;14.77;;;8.00;99.90;;;;;;5009694;28;20057;-59
2022/03/21 02:30:07;;;;;;;30.02;13.93;;;8.00;99.90;;;;;;5030706;28;20030;-58
2022/03/21 02:32:32;;;;;;;24.75;14.40;;;8.10;99.90;;;;;;5030418;28;20029;-58
2022/03/21 02:34:58;;;;;;;27.25;14.57;;;8.10;99.90;;;;;;5030288;28;20024;-58
2022/03/21 02:37:25;;;;;;;23.77;13.50;;;8.00;99.90;;;;;;5030964;28;20116;-59
2022/03/21 02:39:52;;;;;;;29.73;16.77;;;8.00;99.90;;;;;;5029065;28;20017;-60
2022/03/21 02:42:18;;;;;;;28.40;15.90;;;7.90;99.90;;;;;;5031561;28;20017;-56
2022/03/21 02:44:44;;;;;;;28.17;13.90;;;7.90;99.90;;;;;;5022457;28;20375;-59
2022/03/21 02:47:10;;;;;;;25.20;15.18;;;7.90;99.90;;;;;;5031356;28;20021;-58
2022/03/21 02:49:36;;;;;;;27.70;14.98;;;7.80;99.90;;;;;;5027072;28;20017;-57
2022/03/21 02:52:04;;;;;;;28.02;13.38;;;7.80;99.90;;;;;;5017792;28;20022;-57
2022/03/21 02:54:30;;;;;;;27.33;14.25;;;7.80;99.90;;;;;;5029846;28;20010;-58
2022/03/21 02:56:57;;;;;;;30.17;14.90;;;7.80;99.90;;;;;;5032216;28;20033;-59
2022/03/21 02:59:23;;;;;;;27.50;15.50;;;7.80;99.90;;;;;;5006895;28;20083;-60
2022/03/21 03:01:53;;;;;;;25.40;13.70;;;7.80;99.90;;;;;;5013196;28;20034;-58
2022/03/21 03:04:20;;;;;;;23.67;14.15;;;7.90;99.90;;;;;;5030786;28;20036;-59
2022/03/21 03:06:46;;;;;;;24.15;13.93;;;7.90;99.90;;;;;;5030251;28;20439;-59
2022/03/21 03:09:12;;;;;;;22.98;13.38;;;7.90;99.90;;;;;;5030246;28;20033;-59
2022/03/21 03:11:38;;;;;;;24.83;13.77;;;7.90;99.90;;;;;;5028294;28;20018;-57
2022/03/21 03:14:05;;;;;;;25.70;14.40;;;8.00;99.90;;;;;;5027524;28;20031;-58
2022/03/21 03:16:31;;;;;;;25.15;13.45;;;8.00;99.90;;;;;;5031036;28;20120;-59
2022/03/21 03:18:57;;;;;;;26.88;14.35;;;8.00;99.90;;;;;;5015940;28;20121;-59
2022/03/21 03:21:25;;;;;;;27.63;14.60;;;7.90;99.90;;;;;;5028239;28;20029;-59
2022/03/21 03:23:52;;;;;;;23.27;13.93;;;7.90;99.90;;;;;;5026207;28;20096;-59
2022/03/21 03:26:18;;;;;;;28.45;16.20;;;7.90;99.90;;;;;;5023755;28;20053;-56
2022/03/21 03:28:45;;;;;;;22.10;12.93;;;7.90;99.90;;;;;;5010137;28;20505;-60
2022/03/21 03:31:12;;;;;;;30.30;15.75;;;7.90;99.90;;;;;;5022479;28;20434;-58
2022/03/21 03:33:38;;;;;;;21.38;13.90;;;7.90;99.90;;;;;;5020927;28;20022;-60
2022/03/21 03:36:04;;;;;;;25.38;13.95;;;7.90;99.90;;;;;;5028170;28;20029;-60
2022/03/21 03:38:30;;;;;;;22.75;13.82;;;7.90;99.90;;;;;;5021003;28;20030;-59
2022/03/21 03:40:55;;;;;;;24.45;13.38;;;7.90;99.90;;;;;;5026638;28;20037;-60
2022/03/21 03:43:21;;;;;;;26.67;12.98;;;7.90;99.90;;;;;;5028378;28;20431;-60
2022/03/21 03:45:49;;;;;;;27.25;13.35;;;7.80;99.60;;;;;;5026752;28;20030;-59
2022/03/21 03:48:15;;;;;;;23.33;13.95;;;7.80;99.90;;;;;;5026826;28;20022;-59
2022/03/21 03:50:41;;;;;;;25.60;14.65;;;7.70;99.90;;;;;;5029886;28;20032;-59
2022/03/21 03:53:08;;;;;;;26.88;13.68;;;7.60;99.90;;;;;;5024266;28;20045;-58
2022/03/21 03:55:33;;;;;;;25.55;14.45;;;7.60;99.90;;;;;;5023787;28;20121;-59
2022/03/21 03:57:59;;;;;;;26.13;14.77;;;7.40;99.90;;;;;;5018904;28;20471;-57
2022/03/21 04:00:25;;;;;;;24.10;13.65;;;7.30;99.90;;;;;;5026597;28;20502;-51
2022/03/21 04:05:35;;;;;;;32.75;14.45;;;7.30;99.90;;;;;;5027408;28;20091;-58
2022/03/21 04:08:01;;;;;;;25.35;13.63;;;7.20;99.90;;;;;;5023043;28;20025;-59
2022/03/21 04:10:26;;;;;;;27.65;15.48;;;7.10;99.90;;;;;;5030520;28;20048;-52
2022/03/21 04:12:52;;;;;;;24.35;14.27;;;7.00;99.90;;;;;;5025499;28;20033;-58
2022/03/21 04:15:19;;;;;;;25.38;13.95;;;7.00;99.90;;;;;;5025568;28;20462;-57
2022/03/21 04:17:45;;;;;;;26.52;14.77;;;6.90;99.90;;;;;;5019075;28;20049;-57
2022/03/21 04:20:11;;;;;;;28.52;14.70;;;6.90;99.90;;;;;;5028299;28;20026;-55
2022/03/21 04:22:37;;;;;;;26.38;14.25;;;6.80;99.90;;;;;;5024566;28;20033;-57
2022/03/21 04:25:10;;;;;;;26.40;16.00;;;6.80;99.90;;;;;;5018146;28;20529;-56
2022/03/21 04:27:37;;;;;;;31.90;15.40;;;6.70;99.90;;;;;;5025389;28;20029;-59
2022/03/21 04:30:04;;;;;;;24.20;15.18;;;6.70;99.90;;;;;;5014447;28;20041;-59
2022/03/21 04:32:30;;;;;;;29.80;15.45;;;6.70;99.90;;;;;;5026312;28;20112;-57
2022/03/21 04:34:55;;;;;;;28.13;16.80;;;6.70;99.90;;;;;;5029370;28;20112;-57
2022/03/21 04:37:21;;;;;;;32.25;16.38;;;6.60;99.90;;;;;;5028545;28;20462;-59
2022/03/21 04:39:46;;;;;;;27.25;14.63;;;6.60;99.90;;;;;;5025638;28;20029;-57
2022/03/21 04:42:12;;;;;;;25.90;14.70;;;6.50;99.90;;;;;;5025009;28;20025;-58
2022/03/21 04:44:39;;;;;;;29.55;15.40;;;6.50;99.90;;;;;;5023370;28;21996;-57
2022/03/21 04:47:06;;;;;;;22.92;12.95;;;6.40;99.90;;;;;;5024420;28;20025;-59
2022/03/21 04:49:31;;;;;;;25.65;14.68;;;6.40;99.90;;;;;;5019505;28;20024;-56
2022/03/21 04:51:57;;;;;;;23.88;13.32;;;6.30;99.90;;;;;;5028933;28;20029;-59
2022/03/21 04:54:22;;;;;;;21.55;12.95;;;6.20;99.90;;;;;;5023011;28;20129;-56
2022/03/21 04:56:48;;;;;;;26.33;13.82;;;6.20;99.90;;;;;;5008632;28;20041;-58
2022/03/21 04:59:14;;;;;;;22.00;12.98;;;6.20;99.90;;;;;;5021716;28;20034;-56
2022/03/21 05:01:39;;;;;;;22.52;14.05;;;6.20;99.90;;;;;;5030104;28;20398;-61
2022/03/21 05:04:05;;;;;;;25.10;14.18;;;6.20;99.90;;;;;;5019779;28;20029;-61
2022/03/21 05:06:31;;;;;;;23.95;12.85;;;6.20;99.90;;;;;;5027316;28;20495;-61
2022/03/21 05:08:59;;;;;;;24.58;16.20;;;6.10;99.90;;;;;;5027687;28;20025;-61
2022/03/21 05:11:24;;;;;;;24.77;14.18;;;6.10;99.90;;;;;;5029779;28;20017;-59
2022/03/21 05:13:50;;;;;;;23.90;13.40;;;6.10;99.90;;;;;;5024188;28;20030;-59
2022/03/21 05:16:16;;;;;;;25.48;14.77;;;6.10;99.90;;;;;;5028045;28;20100;-58
2022/03/21 05:18:43;;;;;;;25.63;14.48;;;6.20;99.90;;;;;;5023614;28;20532;-61
2022/03/21 05:21:09;;;;;;;31.73;14.65;;;6.20;99.90;;;;;;5033092;28;20045;-59
2022/03/21 05:31:47;;;;;;;23.77;13.55;;;6.10;99.90;;;;;;5032334;28;20403;-61
2022/03/21 05:36:56;;;;;;;23.58;13.52;;;6.00;99.90;;;;;;5025839;28;20040;-61
2022/03/21 05:39:23;;;;;;;26.40;13.32;;;6.10;99.90;;;;;;5031170;28;20034;-60
2022/03/21 05:41:52;;;;;;;23.13;12.88;;;6.10;99.90;;;;;;5021710;28;20498;-60
2022/03/21 05:44:18;;;;;;;23.48;13.65;;;6.10;99.90;;;;;;5029908;28;20030;-59
2022/03/21 05:46:43;;;;;;;24.42;13.68;;;6.20;99.90;;;;;;5032318;28;20547;-59
2022/03/21 05:49:09;;;;;;;24.15;13.10;;;6.10;99.90;;;;;;5032201;28;20036;-61
2022/03/21 05:51:37;;;;;;;27.77;13.98;;;6.10;99.90;;;;;;5030965;28;20032;-59
2022/03/21 05:54:05;;;;;;;24.60;13.88;;;6.10;99.90;;;;;;5022442;28;20022;-60
2022/03/21 05:56:31;;;;;;;23.17;12.57;;;6.00;99.90;;;;;;5030207;28;20467;-58
2022/03/21 05:59:00;;;;;;;23.02;12.88;;;6.10;99.70;;;;;;5020177;28;20083;-59
2022/03/21 06:01:42;;;;;;;21.92;12.40;;;6.10;99.10;;;;;;5030754;28;20026;-59
2022/03/21 06:04:08;;;;;;;21.65;12.55;;;6.20;98.60;;;;;;5025904;28;20338;-58
2022/03/21 06:06:33;;;;;;;26.05;12.05;;;6.30;98.00;;;;;;5030138;28;20453;-61
2022/03/21 06:08:59;;;;;;;23.13;13.32;;;6.40;97.90;;;;;;5018833;28;20036;-58
2022/03/21 06:11:26;;;;;;;22.27;12.80;;;6.50;98.50;;;;;;5027837;28;20025;-61
2022/03/21 06:13:51;;;;;;;21.73;12.07;;;6.50;98.70;;;;;;5027118;28;20454;-60
2022/03/21 06:16:17;;;;;;;21.80;12.52;;;6.50;98.50;;;;;;5024248;28;20105;-58
2022/03/21 06:18:43;;;;;;;21.00;11.65;;;6.50;98.70;;;;;;5029610;28;20586;-60
2022/03/21 06:21:09;;;;;;;22.35;11.65;;;6.50;99.30;;;;;;5029147;28;20450;-61
2022/03/21 06:23:36;;;;;;;19.27;11.82;;;6.60;98.50;;;;;;5029820;28;20116;-61
2022/03/21 06:26:03;;;;;;;18.58;11.80;;;6.70;97.80;;;;;;5027154;28;20030;-59
2022/03/21 06:28:29;;;;;;;22.00;12.77;;;6.80;98.10;;;;;;5009654;28;20425;-60
2022/03/21 06:30:56;;;;;;;22.60;12.05;;;6.90;97.60;;;;;;5029687;28;20582;-62
2022/03/21 06:33:27;;;;;;;23.27;12.85;;;7.20;96.20;;;;;;5030394;28;20025;-61
2022/03/21 06:35:54;;;;;;;21.55;13.13;;;7.40;95.30;;;;;;5030352;28;20030;-61
2022/03/21 06:38:19;;;;;;;19.02;11.45;;;7.50;95.80;;;;;;5015720;28;20056;-59
2022/03/21 06:40:45;;;;;;;20.33;11.70;;;7.80;95.40;;;;;;5030878;28;20478;-60
2022/03/21 06:43:12;;;;;;;21.85;11.70;;;8.00;94.80;;;;;;5026446;28;20025;-59
2022/03/21 06:45:38;;;;;;;20.67;11.35;;;8.20;94.90;;;;;;5030122;28;20394;-57
2022/03/21 06:48:04;;;;;;;22.25;12.45;;;8.50;94.80;;;;;;5024874;28;20026;-59
2022/03/21 06:50:30;;;;;;;21.92;11.77;;;9.00;95.00;;;;;;5027202;28;20026;-56
2022/03/21 06:52:55;;;;;;;18.80;11.73;;;9.40;92.70;;;;;;5028433;28;20025;-57
2022/03/21 06:55:21;;;;;;;21.20;13.32;;;9.90;92.40;;;;;;5018467;28;20108;-58
2022/03/21 06:57:47;;;;;;;19.10;12.23;;;10.60;91.60;;;;;;5024798;28;20030;-58
2022/03/21 07:00:13;;;;;;;19.20;11.75;;;11.30;90.30;;;;;;5027396;28;20402;-59
2022/03/21 07:02:40;;;;;;;16.60;11.98;;;12.00;87.50;;;;;;5028593;28;20037;-59
2022/03/21 07:05:07;;;;;;;18.40;11.75;;;12.70;83.30;;;;;;5029488;28;20620;-58
2022/03/21 07:07:33;;;;;;;18.60;11.98;;;13.20;82.50;;;;;;5025267;28;20033;-60
2022/03/21 07:09:58;;;;;;;19.02;12.90;;;13.60;80.80;;;;;;5019407;28;20152;-59
2022/03/21 07:12:24;;;;;;;21.48;12.85;;;14.00;79.80;;;;;;5027472;28;20613;-60
2022/03/21 07:14:50;;;;;;;16.83;11.55;;;14.10;78.20;;;;;;5026960;28;20033;-59
2022/03/21 07:17:19;;;;;;;16.83;11.85;;;14.30;77.70;;;;;;5030190;28;20044;-56
2022/03/21 07:19:45;;;;;;;17.67;11.57;;;14.60;76.60;;;;;;5030300;28;20035;-60
2022/03/21 07:22:11;;;;;;;15.45;11.32;;;15.20;73.00;;;;;;5027165;28;20025;-58
2022/03/21 07:24:37;;;;;;;15.57;11.43;;;15.40;73.80;;;;;;5025850;28;20139;-60
2022/03/21 07:27:03;;;;;;;16.52;12.07;;;14.70;73.50;;;;;;5029365;28;20120;-58
2022/03/21 07:29:29;;;;;;;18.02;12.05;;;14.30;72.40;;;;;;5012209;28;20045;-57
2022/03/21 07:31:56;;;;;;;17.08;12.43;;;13.60;74.30;;;;;;5030052;28;21274;-59
2022/03/21 07:34:22;;;;;;;15.23;11.50;;;13.00;76.20;;;;;;5025215;28;20030;-60
2022/03/21 07:36:49;;;;;;;18.00;12.18;;;12.80;76.40;;;;;;5029194;28;20029;-56
2022/03/21 07:39:15;;;;;;;17.58;12.85;;;12.50;77.30;;;;;;5024826;28;20087;-60
2022/03/21 07:41:40;;;;;;;17.52;12.70;;;12.10;78.00;;;;;;5026797;28;20057;-57
2022/03/21 07:44:06;;;;;;;18.85;12.68;;;12.00;77.80;;;;;;5023119;28;20109;-58
2022/03/21 07:49:16;;;;;;;21.15;12.55;;;11.70;80.30;;;;;;5027052;28;20069;-57
2022/03/21 07:51:43;;;;;;;16.15;12.02;;;11.80;80.00;;;;;;5024496;28;20402;-60
2022/03/21 07:54:10;;;;;;;17.38;12.05;;;12.00;79.30;;;;;;5027517;28;20318;-58
2022/03/21 07:56:36;;;;;;;20.05;12.40;;;11.90;78.60;;;;;;5026158;28;20509;-59
2022/03/21 07:59:03;;;;;;;17.30;11.93;;;12.20;80.20;;;;;;5023634;28;20034;-59
2022/03/21 08:01:29;;;;;;;18.60;12.25;;;12.30;78.30;;;;;;5028926;28;20025;-60
2022/03/21 08:03:56;;;;;;;18.90;12.60;;;12.50;78.00;;;;;;5024780;28;20021;-58
2022/03/21 08:06:21;;;;;;;17.48;12.68;;;13.00;77.40;;;;;;5028632;28;20061;-59
2022/03/21 08:08:49;;;;;;;17.17;11.75;;;13.50;75.20;;;;;;5015287;28;20516;-59
2022/03/21 08:11:15;;;;;;;18.00;11.57;;;13.80;74.30;;;;;;5026629;28;20055;-60
2022/03/21 08:13:42;;;;;;;16.77;11.68;;;14.50;74.70;;;;;;5015269;28;20068;-60
2022/03/21 08:16:07;;;;;;;19.25;12.35;;;15.20;72.10;;;;;;5028556;28;20490;-60
2022/03/21 08:18:33;;;;;;;24.52;12.65;;;15.20;70.70;;;;;;5015550;28;20053;-59
2022/03/21 08:20:58;;;;;;;17.50;12.52;;;15.40;70.90;;;;;;5023855;28;20109;-60
2022/03/21 08:23:24;;;;;;;18.15;12.20;;;15.80;69.10;;;;;;5025230;28;20026;-59
2022/03/21 08:25:49;;;;;;;18.88;11.57;;;15.60;70.60;;;;;;5029577;28;20767;-59
2022/03/21 08:28:15;;;;;;;15.70;11.77;;;16.00;69.40;;;;;;5028676;28;20026;-58
2022/03/21 08:30:42;;;;;;;19.33;12.05;;;16.10;69.40;;;;;;5013760;28;20710;-60
2022/03/21 08:33:09;;;;;;;15.50;11.23;;;16.60;68.20;;;;;;5019665;28;20022;-61
2022/03/21 08:35:37;;;;;;;19.08;11.32;;;16.70;66.60;;;;;;5027857;28;20402;-60
2022/03/21 08:38:07;;;;;;;17.77;12.35;;;16.60;66.30;;;;;;5027336;28;20025;-58
2022/03/21 08:40:33;;;;;;;17.90;12.05;;;16.90;66.50;;;;;;5027780;28;20087;-61
2022/03/21 08:42:58;;;;;;;18.50;12.73;;;16.70;65.70;;;;;;5023034;28;20021;-60
2022/03/21 08:45:24;;;;;;;18.58;12.93;;;16.50;65.80;;;;;;5028265;28;20086;-60
2022/03/21 08:47:51;;;;;;;17.30;11.55;;;16.40;66.20;;;;;;5025120;28;20033;-60
2022/03/21 08:50:17;;;;;;;16.38;11.27;;;16.60;66.10;;;;;;5025833;28;20022;-60
2022/03/21 08:52:43;;;;;;;17.55;10.68;;;16.90;65.40;;;;;;5030026;28;20034;-58
2022/03/21 08:55:09;;;;;;;18.13;11.30;;;17.20;64.70;;;;;;5031966;28;20391;-59
2022/03/21 08:57:35;;;;;;;20.55;11.30;;;17.30;64.20;;;;;;5032809;28;20030;-60
2022/03/21 09:00:04;;;;;;;14.52;11.07;;;17.40;64.20;;;;;;5032407;28;20032;-61
2022/03/21 09:02:30;;;;;;;16.70;11.55;;;17.10;63.50;;;;;;5031737;28;20045;-52
2022/03/21 09:04:58;;;;;;;22.50;12.73;;;17.30;63.70;;;;;;5031697;28;20064;-61
2022/03/21 09:07:24;;;;;;;17.58;11.80;;;16.90;64.10;;;;;;5030862;28;20083;-60
2022/03/21 09:09:49;;;;;;;19.05;11.52;;;17.20;64.90;;;;;;5032983;28;20021;-60
2022/03/21 09:12:15;;;;;;;17.45;12.02;;;17.00;63.90;;;;;;5033536;28;20498;-61
2022/03/21 09:14:40;;;;;;;19.45;11.82;;;17.30;63.50;;;;;;5025663;28;20033;-60
2022/03/21 09:17:06;;;;;;;18.60;12.55;;;17.30;63.00;;;;;;5032793;28;20030;-58
2022/03/21 09:19:32;;;;;;;18.88;12.63;;;16.70;62.70;;;;;;5032748;28;20026;-58
2022/03/21 09:21:59;;;;;;;17.33;11.40;;;16.80;64.00;;;;;;5032361;28;20504;-60
2022/03/21 09:24:24;;;;;;;16.55;11.52;;;16.70;65.00;;;;;;5027413;28;20055;-58
2022/03/21 09:26:50;;;;;;;18.08;12.27;;;16.90;63.90;;;;;;5031640;28;20565;-60
2022/03/21 09:29:16;;;;;;;23.38;12.05;;;16.80;63.60;;;;;;5028259;28;20072;-58
2022/03/21 09:31:42;;;;;;;18.95;12.05;;;17.00;64.70;;;;;;5032898;28;20478;-59
2022/03/21 09:34:09;;;;;;;17.58;12.30;;;17.10;63.70;;;;;;5014969;28;20057;-58
2022/03/21 09:36:35;;;;;;;14.40;11.02;;;17.50;64.70;;;;;;5033041;28;20025;-60
2022/03/21 09:39:01;;;;;;;18.33;12.18;;;17.60;64.40;;;;;;5030032;28;20057;-58
2022/03/21 09:41:28;;;;;;;17.02;11.82;;;17.70;63.60;;;;;;5032518;28;20060;-61
2022/03/21 09:43:56;;;;;;;18.00;11.27;;;17.60;62.50;;;;;;5029487;28;20025;-57
2022/03/21 09:46:23;;;;;;;19.65;11.27;;;17.50;62.50;;;;;;5028887;28;20105;-60
2022/03/21 09:48:53;;;;;;;19.10;12.35;;;17.50;63.70;;;;;;5029866;28;20041;-59
2022/03/21 09:51:27;;;;;;;17.42;11.45;;;17.90;62.90;;;;;;5031128;28;20036;-61
2022/03/21 09:53:54;;;;;;;21.70;12.77;;;17.70;63.20;;;;;;5030291;28;20124;-60
2022/03/21 09:56:20;;;;;;;19.08;11.23;;;17.70;63.50;;;;;;5026727;28;20026;-60
2022/03/21 09:58:47;;;;;;;16.80;12.23;;;17.80;63.70;;;;;;5019750;28;20045;-59
2022/03/21 10:01:13;;;;;;;18.45;11.50;;;17.90;64.20;;;;;;5024025;28;20073;-61
2022/03/21 10:03:40;;;;;;;16.25;12.40;;;18.00;63.20;;;;;;5026904;28;20025;-61
2022/03/21 10:06:28;;;;;;;17.00;12.35;;;18.00;63.00;;;;;;5030958;28;20506;-58
2022/03/21 10:09:15;;;;;;;19.02;11.90;;;18.10;63.10;;;;;;5028655;28;20108;-59
2022/03/21 10:11:58;;;;;;;22.27;11.55;;;18.20;65.00;;;;;;5022323;28;20022;-61
2022/03/21 10:14:28;;;;;;;19.88;11.77;;;18.60;64.20;;;;;;5025506;28;20568;-55
2022/03/21 10:16:57;;;;;;;17.23;10.85;;;18.70;63.30;;;;;;5027049;28;20084;-61
2022/03/21 10:19:23;;;;;;;18.85;10.98;;;18.70;63.90;;;;;;5027503;28;20034;-60
2022/03/21 10:22:00;;;;;;;18.73;11.27;;;18.70;63.50;;;;;;5021443;28;20060;-59
2022/03/21 10:24:26;;;;;;;17.48;11.30;;;18.60;63.20;;;;;;5024644;28;20036;-61
2022/03/21 10:26:53;;;;;;;18.42;12.00;;;18.30;64.70;;;;;;5029157;28;20453;-60
2022/03/21 10:29:19;;;;;;;16.52;11.60;;;18.20;65.10;;;;;;5028945;28;20018;-60
2022/03/21 10:31:47;;;;;;;25.95;11.80;;;18.00;65.10;;;;;;5028834;28;20109;-60
2022/03/21 10:34:17;;;;;;;18.88;13.63;;;17.90;65.90;;;;;;5008235;28;20164;-60
2022/03/21 10:36:58;;;;;;;19.00;13.90;;;17.90;66.50;;;;;;5028648;28;20056;-56
2022/03/21 10:39:24;;;;;;;18.88;12.02;;;17.40;65.80;;;;;;5029134;28;20025;-59
2022/03/21 10:41:58;;;;;;;19.55;11.25;;;17.00;66.30;;;;;;5028542;28;20529;-59
2022/03/21 10:44:24;;;;;;;21.10;13.10;;;16.90;66.90;;;;;;5028211;28;20033;-59
2022/03/21 10:46:55;;;;;;;17.92;11.98;;;16.90;66.80;;;;;;5028620;28;20029;-57
2022/03/21 10:49:42;;;;;;;16.38;11.50;;;16.70;66.80;;;;;;5030358;28;20022;-59
2022/03/21 10:52:08;;;;;;;27.90;12.27;;;16.60;67.90;;;;;;5026267;28;20021;-59
2022/03/21 10:54:48;;;;;;;17.45;11.48;;;16.60;68.60;;;;;;5028755;28;20020;-60
2022/03/21 10:57:34;;;;;;;18.98;12.05;;;16.70;68.80;;;;;;5028412;28;20418;-60
2022/03/21 11:00:23;;;;;;;14.88;10.68;;;16.70;67.40;;;;;;5028008;28;20030;-57
2022/03/21 11:03:15;;;;;;;23.10;11.88;;;16.60;69.50;;;;;;5024606;28;20040;-60
2022/03/21 11:05:46;;;;;;;20.50;10.93;;;16.70;70.40;;;;;;5025999;28;20018;-58
2022/03/21 11:08:16;;;;;;;20.48;11.02;;;16.80;69.90;;;;;;5025326;28;20035;-60
2022/03/21 11:10:43;;;;;;;19.80;11.63;;;17.00;70.60;;;;;;5024109;28;20028;-60
2022/03/21 11:13:09;;;;;;;18.17;11.25;;;17.10;70.80;;;;;;5017787;28;20013;-60
2022/03/21 11:15:36;;;;;;;15.27;10.38;;;17.10;70.60;;;;;;5027772;28;20029;-60
2022/03/21 11:18:04;;;;;;;19.58;11.13;;;17.20;70.30;;;;;;5023545;28;20176;-60
2022/03/21 11:20:30;;;;;;;19.27;10.40;;;17.20;69.90;;;;;;5016610;28;20022;-56
2022/03/21 11:22:57;;;;;;;17.70;10.82;;;17.10;71.20;;;;;;5027891;28;20037;-59
2022/03/21 11:25:25;;;;;;;20.48;11.45;;;16.90;70.30;;;;;;5030899;28;20025;-59
2022/03/21 11:28:09;;;;;;;19.80;11.43;;;16.90;70.70;;;;;;5024623;28;20660;-59
2022/03/21 11:30:38;;;;;;;18.42;11.00;;;16.90;71.30;;;;;;5029643;28;20084;-60
2022/03/21 11:33:29;;;;;;;15.98;11.05;;;16.90;70.90;;;;;;5013180;28;20038;-59
2022/03/21 11:36:08;;;;;;;24.92;13.10;;;17.00;72.50;;;;;;5028687;28;20034;-58
2022/03/21 11:38:41;;;;;;;27.33;15.02;;;17.00;72.80;;;;;;5026828;28;20029;-55
2022/03/21 11:41:12;;;;;;;26.45;15.27;;;17.10;73.70;;;;;;5025363;28;20029;-59
2022/03/21 11:43:39;;;;;;;19.20;10.77;;;17.10;72.10;;;;;;5022206;28;20029;-61
2022/03/21 11:46:27;;;;;;;19.70;11.45;;;17.20;71.80;;;;;;5025122;28;20579;-59
2022/03/21 11:48:53;;;;;;;20.80;10.38;;;17.10;72.10;;;;;;5012207;28;20075;-59
2022/03/21 11:51:19;;;;;;;21.73;12.60;;;17.10;71.40;;;;;;5022543;28;20021;-57
2022/03/21 11:53:53;;;;;;;22.10;12.07;;;17.10;72.70;;;;;;5028488;28;20018;-60
2022/03/21 11:56:41;;;;;;;14.82;10.23;;;17.20;73.70;;;;;;5025979;28;20026;-58
2022/03/21 11:59:07;;;;;;;21.20;11.55;;;17.20;73.40;;;;;;5022962;28;20030;-58
2022/03/21 12:01:33;;;;;;;17.10;10.55;;;17.30;73.60;;;;;;5020707;28;20087;-61
2022/03/21 12:04:24;;;;;;;17.40;11.02;;;17.30;73.00;;;;;;5026102;28;20520;-59
2022/03/21 12:06:51;;;;;;;18.13;10.43;;;17.40;72.90;;;;;;5008116;28;20119;-57
2022/03/21 12:09:16;;;;;;;15.23;9.35;;;17.30;73.50;;;;;;5023986;28;20030;-58
2022/03/21 12:11:43;;;;;;;14.57;9.57;;;17.30;74.30;;;;;;5022668;28;20045;-59
2022/03/21 12:14:42;;;;;;;16.48;9.20;;;17.20;74.10;;;;;;5026547;28;20556;-57
2022/03/21 12:17:10;;;;;;;22.23;9.75;;;17.30;74.70;;;;;;5026921;28;20510;-57
2022/03/21 12:19:45;;;;;;;16.55;9.50;;;17.30;75.20;;;;;;5025290;28;20034;-59
2022/03/21 12:22:34;;;;;;;19.05;9.95;;;17.40;74.50;;;;;;5026728;28;20039;-59
2022/03/21 12:25:08;;;;;;;20.40;11.75;;;17.30;74.30;;;;;;5023692;28;20028;-59
2022/03/21 12:27:45;;;;;;;18.58;9.40;;;17.40;74.70;;;;;;5033275;28;20021;-60
2022/03/21 12:30:40;;;;;;;23.55;16.42;;;17.50;75.70;;;;;;5030325;28;20394;-60
2022/03/21 12:33:14;;;;;;;20.77;14.77;;;17.40;73.70;;;;;;5010136;28;20113;-58
2022/03/21 12:35:41;;;;;;;17.60;10.52;;;17.40;72.20;;;;;;5023196;28;20018;-60
2022/03/21 12:38:11;;;;;;;20.10;10.07;;;17.30;73.70;;;;;;5029371;28;20029;-58
2022/03/21 12:43:16;;;;;;;18.25;10.70;;;17.30;74.80;;;;;;5027709;28;20029;-58
2022/03/21 12:45:44;;;;;;;14.88;8.90;;;17.30;74.50;;;;;;5030300;28;20040;-59
2022/03/21 12:48:11;;;;;;;18.77;9.38;;;17.30;74.80;;;;;;5031621;28;20111;-59
2022/03/21 12:50:37;;;;;;;21.48;11.15;;;17.30;77.10;;;;;;5021081;28;20568;-59
2022/03/21 12:53:06;;;;;;;16.55;7.78;;;17.40;76.40;;;;;;5029949;28;20025;-57
2022/03/21 12:55:32;;;;;;;19.92;8.35;;;17.50;76.50;;;;;;5031995;28;20075;-60
2022/03/21 12:58:02;;;;;;;11.70;7.85;;;17.60;76.00;;;;;;5029624;28;20022;-59